sensor_id;sensor_type;location;lat;lon;timestamp;P1;durP1;ratioP1;P2;durP2;ratioP2
82793;SDS011;72533;52.852;6.176;2023-12-14T00:01:27;12.18;;;6.40;;
82793;SDS011;72533;52.852;6.176;2023-12-14T00:03:52;13.80;;;7.00;;
82793;SDS011;72533;52.852;6.176;2023-12-14T00:06:18;12.27;;;6.87;;
82793;SDS011;72533;52.852;6.176;2023-12-14T00:08:43;14.00;;;7.75;;
82793;SDS011;72533;52.852;6.176;2023-12-14T00:11:09;11.88;;;7.43;;
82793;SDS011;72533;52.852;6.176;2023-12-14T00:13:35;13.98;;;8.05;;
82793;SDS011;72533;52.852;6.176;2023-12-14T00:16:01;14.75;;;7.95;;
82793;SDS011;72533;52.852;6.176;2023-12-14T00:18:27;13.70;;;8.07;;
82793;SDS011;72533;52.852;6.176;2023-12-14T00:20:53;16.20;;;9.90;;
82793;SDS011;72533;52.852;6.176;2023-12-14T00:23:21;14.25;;;7.40;;
82793;SDS011;72533;52.852;6.176;2023-12-14T00:25:47;12.25;;;7.03;;
82793;SDS011;72533;52.852;6.176;2023-12-14T00:28:12;15.37;;;8.83;;
82793;SDS011;72533;52.852;6.176;2023-12-14T00:30:38;16.85;;;10.07;;
82793;SDS011;72533;52.852;6.176;2023-12-14T00:33:04;15.63;;;8.60;;
82793;SDS011;72533;52.852;6.176;2023-12-14T00:35:29;12.20;;;6.90;;
82793;SDS011;72533;52.852;6.176;2023-12-14T00:37:54;13.27;;;7.27;;
82793;SDS011;72533;52.852;6.176;2023-12-14T00:40:20;15.80;;;9.63;;
82793;SDS011;72533;52.852;6.176;2023-12-14T00:42:45;15.87;;;8.53;;
82793;SDS011;72533;52.852;6.176;2023-12-14T00:45:10;12.10;;;7.90;;
82793;SDS011;72533;52.852;6.176;2023-12-14T00:47:36;13.75;;;7.25;;
82793;SDS011;72533;52.852;6.176;2023-12-14T00:50:01;14.60;;;7.20;;
82793;SDS011;72533;52.852;6.176;2023-12-14T00:52:27;11.30;;;6.40;;
82793;SDS011;72533;52.852;6.176;2023-12-14T00:54:52;14.07;;;8.35;;
82793;SDS011;72533;52.852;6.176;2023-12-14T00:57:18;11.52;;;7.10;;
82793;SDS011;72533;52.852;6.176;2023-12-14T00:59:43;12.47;;;7.33;;
82793;SDS011;72533;52.852;6.176;2023-12-14T01:02:08;11.47;;;7.00;;
82793;SDS011;72533;52.852;6.176;2023-12-14T01:04:34;14.85;;;6.82;;
82793;SDS011;72533;52.852;6.176;2023-12-14T01:06:59;14.55;;;8.45;;
82793;SDS011;72533;52.852;6.176;2023-12-14T01:09:24;15.50;;;7.07;;
82793;SDS011;72533;52.852;6.176;2023-12-14T01:11:50;13.03;;;8.40;;
82793;SDS011;72533;52.852;6.176;2023-12-14T01:14:15;10.68;;;6.53;;
82793;SDS011;72533;52.852;6.176;2023-12-14T01:16:40;14.32;;;8.60;;
82793;SDS011;72533;52.852;6.176;2023-12-14T01:19:06;14.65;;;7.40;;
82793;SDS011;72533;52.852;6.176;2023-12-14T01:21:32;13.07;;;8.82;;
82793;SDS011;72533;52.852;6.176;2023-12-14T01:23:57;13.20;;;11.73;;
82793;SDS011;72533;52.852;6.176;2023-12-14T01:26:22;13.10;;;7.67;;
82793;SDS011;72533;52.852;6.176;2023-12-14T01:28:48;12.87;;;8.53;;
82793;SDS011;72533;52.852;6.176;2023-12-14T01:31:13;16.63;;;8.83;;
82793;SDS011;72533;52.852;6.176;2023-12-14T01:33:38;16.70;;;7.23;;
82793;SDS011;72533;52.852;6.176;2023-12-14T01:36:04;13.10;;;6.47;;
82793;SDS011;72533;52.852;6.176;2023-12-14T01:38:29;14.85;;;13.25;;
82793;SDS011;72533;52.852;6.176;2023-12-14T01:40:55;13.60;;;7.50;;
82793;SDS011;72533;52.852;6.176;2023-12-14T01:43:21;12.65;;;7.32;;
82793;SDS011;72533;52.852;6.176;2023-12-14T01:45:46;14.27;;;8.00;;
82793;SDS011;72533;52.852;6.176;2023-12-14T01:48:11;12.70;;;7.80;;
82793;SDS011;72533;52.852;6.176;2023-12-14T01:50:37;11.13;;;7.60;;
82793;SDS011;72533;52.852;6.176;2023-12-14T01:53:02;12.60;;;6.27;;
82793;SDS011;72533;52.852;6.176;2023-12-14T01:55:28;13.32;;;8.27;;
82793;SDS011;72533;52.852;6.176;2023-12-14T01:57:53;11.15;;;6.93;;
82793;SDS011;72533;52.852;6.176;2023-12-14T02:00:22;10.00;;;5.45;;
82793;SDS011;72533;52.852;6.176;2023-12-14T02:02:53;11.52;;;7.57;;
82793;SDS011;72533;52.852;6.176;2023-12-14T02:05:19;13.05;;;6.93;;
82793;SDS011;72533;52.852;6.176;2023-12-14T02:07:44;11.88;;;6.05;;
82793;SDS011;72533;52.852;6.176;2023-12-14T02:10:10;13.43;;;7.13;;
82793;SDS011;72533;52.852;6.176;2023-12-14T02:12:35;13.67;;;6.33;;
82793;SDS011;72533;52.852;6.176;2023-12-14T02:15:00;12.68;;;8.07;;
82793;SDS011;72533;52.852;6.176;2023-12-14T02:17:25;10.63;;;5.73;;
82793;SDS011;72533;52.852;6.176;2023-12-14T02:19:51;9.10;;;5.27;;
82793;SDS011;72533;52.852;6.176;2023-12-14T02:22:16;8.80;;;4.60;;
82793;SDS011;72533;52.852;6.176;2023-12-14T02:24:42;9.13;;;4.78;;
82793;SDS011;72533;52.852;6.176;2023-12-14T02:27:08;8.77;;;4.60;;
82793;SDS011;72533;52.852;6.176;2023-12-14T02:29:33;10.45;;;5.50;;
82793;SDS011;72533;52.852;6.176;2023-12-14T02:31:58;10.37;;;5.43;;
82793;SDS011;72533;52.852;6.176;2023-12-14T02:34:24;8.67;;;5.17;;
82793;SDS011;72533;52.852;6.176;2023-12-14T02:36:50;10.85;;;8.40;;
82793;SDS011;72533;52.852;6.176;2023-12-14T02:39:15;9.48;;;4.53;;
82793;SDS011;72533;52.852;6.176;2023-12-14T02:41:40;8.30;;;5.05;;
82793;SDS011;72533;52.852;6.176;2023-12-14T02:44:06;8.70;;;4.77;;
82793;SDS011;72533;52.852;6.176;2023-12-14T02:46:31;8.67;;;4.27;;
82793;SDS011;72533;52.852;6.176;2023-12-14T02:48:56;9.43;;;4.87;;
82793;SDS011;72533;52.852;6.176;2023-12-14T02:51:22;9.20;;;4.70;;
82793;SDS011;72533;52.852;6.176;2023-12-14T02:53:47;9.67;;;4.90;;
82793;SDS011;72533;52.852;6.176;2023-12-14T02:56:12;8.27;;;4.60;;
82793;SDS011;72533;52.852;6.176;2023-12-14T02:58:38;9.00;;;5.45;;
82793;SDS011;72533;52.852;6.176;2023-12-14T03:01:03;7.80;;;4.15;;
82793;SDS011;72533;52.852;6.176;2023-12-14T03:03:29;8.52;;;4.60;;
82793;SDS011;72533;52.852;6.176;2023-12-14T03:05:54;8.70;;;4.88;;
82793;SDS011;72533;52.852;6.176;2023-12-14T03:08:20;9.48;;;5.25;;
82793;SDS011;72533;52.852;6.176;2023-12-14T03:10:45;10.05;;;6.18;;
82793;SDS011;72533;52.852;6.176;2023-12-14T03:13:10;9.10;;;5.57;;
82793;SDS011;72533;52.852;6.176;2023-12-14T03:15:36;9.80;;;6.27;;
82793;SDS011;72533;52.852;6.176;2023-12-14T03:18:03;11.38;;;5.72;;
82793;SDS011;72533;52.852;6.176;2023-12-14T03:20:29;10.10;;;5.90;;
82793;SDS011;72533;52.852;6.176;2023-12-14T03:22:54;9.38;;;4.70;;
82793;SDS011;72533;52.852;6.176;2023-12-14T03:25:19;9.93;;;7.20;;
82793;SDS011;72533;52.852;6.176;2023-12-14T03:27:45;11.13;;;6.33;;
82793;SDS011;72533;52.852;6.176;2023-12-14T03:30:10;10.47;;;6.37;;
82793;SDS011;72533;52.852;6.176;2023-12-14T03:32:36;11.40;;;5.03;;
82793;SDS011;72533;52.852;6.176;2023-12-14T03:35:01;11.40;;;5.82;;
82793;SDS011;72533;52.852;6.176;2023-12-14T03:37:27;10.68;;;6.20;;
82793;SDS011;72533;52.852;6.176;2023-12-14T03:39:52;13.67;;;7.37;;
82793;SDS011;72533;52.852;6.176;2023-12-14T03:42:17;11.90;;;7.57;;
82793;SDS011;72533;52.852;6.176;2023-12-14T03:44:43;12.32;;;6.85;;
82793;SDS011;72533;52.852;6.176;2023-12-14T03:47:08;12.90;;;6.83;;
82793;SDS011;72533;52.852;6.176;2023-12-14T03:49:37;12.23;;;6.70;;
82793;SDS011;72533;52.852;6.176;2023-12-14T03:52:03;11.68;;;6.00;;
82793;SDS011;72533;52.852;6.176;2023-12-14T03:54:29;15.82;;;8.52;;
82793;SDS011;72533;52.852;6.176;2023-12-14T03:56:54;14.90;;;7.17;;
82793;SDS011;72533;52.852;6.176;2023-12-14T03:59:19;15.45;;;8.00;;
82793;SDS011;72533;52.852;6.176;2023-12-14T04:01:45;14.00;;;6.70;;
82793;SDS011;72533;52.852;6.176;2023-12-14T04:04:10;16.03;;;6.97;;
82793;SDS011;72533;52.852;6.176;2023-12-14T04:06:35;13.00;;;8.80;;
82793;SDS011;72533;52.852;6.176;2023-12-14T04:09:01;14.70;;;7.50;;
82793;SDS011;72533;52.852;6.176;2023-12-14T04:11:26;13.75;;;9.25;;
82793;SDS011;72533;52.852;6.176;2023-12-14T04:13:51;15.40;;;7.37;;
82793;SDS011;72533;52.852;6.176;2023-12-14T04:16:21;15.45;;;6.13;;
82793;SDS011;72533;52.852;6.176;2023-12-14T04:18:47;16.60;;;8.27;;
82793;SDS011;72533;52.852;6.176;2023-12-14T04:21:13;13.75;;;8.88;;
82793;SDS011;72533;52.852;6.176;2023-12-14T04:23:38;13.13;;;7.70;;
82793;SDS011;72533;52.852;6.176;2023-12-14T04:26:03;18.30;;;11.20;;
82793;SDS011;72533;52.852;6.176;2023-12-14T04:28:29;17.67;;;8.32;;
82793;SDS011;72533;52.852;6.176;2023-12-14T04:30:54;17.47;;;9.73;;
82793;SDS011;72533;52.852;6.176;2023-12-14T04:33:19;14.97;;;7.93;;
82793;SDS011;72533;52.852;6.176;2023-12-14T04:35:45;17.83;;;10.43;;
82793;SDS011;72533;52.852;6.176;2023-12-14T04:38:10;13.33;;;7.53;;
82793;SDS011;72533;52.852;6.176;2023-12-14T04:40:36;15.07;;;7.82;;
82793;SDS011;72533;52.852;6.176;2023-12-14T04:43:01;14.90;;;8.23;;
82793;SDS011;72533;52.852;6.176;2023-12-14T04:45:26;15.20;;;7.83;;
82793;SDS011;72533;52.852;6.176;2023-12-14T04:47:51;13.87;;;8.20;;
82793;SDS011;72533;52.852;6.176;2023-12-14T04:50:17;13.97;;;7.83;;
82793;SDS011;72533;52.852;6.176;2023-12-14T04:52:42;14.20;;;7.57;;
82793;SDS011;72533;52.852;6.176;2023-12-14T04:55:08;14.80;;;8.07;;
82793;SDS011;72533;52.852;6.176;2023-12-14T04:57:33;15.27;;;7.97;;
82793;SDS011;72533;52.852;6.176;2023-12-14T04:59:58;14.05;;;8.02;;
82793;SDS011;72533;52.852;6.176;2023-12-14T05:02:24;12.80;;;6.73;;
82793;SDS011;72533;52.852;6.176;2023-12-14T05:04:49;15.77;;;8.40;;
82793;SDS011;72533;52.852;6.176;2023-12-14T05:07:15;17.80;;;10.50;;
82793;SDS011;72533;52.852;6.176;2023-12-14T05:09:40;15.82;;;9.95;;
82793;SDS011;72533;52.852;6.176;2023-12-14T05:12:06;13.37;;;6.53;;
82793;SDS011;72533;52.852;6.176;2023-12-14T05:14:31;14.30;;;7.22;;
82793;SDS011;72533;52.852;6.176;2023-12-14T05:16:56;13.20;;;6.83;;
82793;SDS011;72533;52.852;6.176;2023-12-14T05:19:22;11.40;;;6.23;;
82793;SDS011;72533;52.852;6.176;2023-12-14T05:21:47;15.65;;;7.25;;
82793;SDS011;72533;52.852;6.176;2023-12-14T05:24:12;11.55;;;5.80;;
82793;SDS011;72533;52.852;6.176;2023-12-14T05:26:38;14.95;;;10.75;;
82793;SDS011;72533;52.852;6.176;2023-12-14T05:29:03;11.73;;;9.10;;
82793;SDS011;72533;52.852;6.176;2023-12-14T05:31:28;15.10;;;7.97;;
82793;SDS011;72533;52.852;6.176;2023-12-14T05:33:54;14.32;;;6.78;;
82793;SDS011;72533;52.852;6.176;2023-12-14T05:36:19;12.27;;;6.23;;
82793;SDS011;72533;52.852;6.176;2023-12-14T05:38:44;12.23;;;6.67;;
82793;SDS011;72533;52.852;6.176;2023-12-14T05:41:10;15.83;;;9.63;;
82793;SDS011;72533;52.852;6.176;2023-12-14T05:43:35;14.40;;;9.40;;
82793;SDS011;72533;52.852;6.176;2023-12-14T05:46:01;13.43;;;8.07;;
82793;SDS011;72533;52.852;6.176;2023-12-14T05:48:27;15.18;;;7.10;;
82793;SDS011;72533;52.852;6.176;2023-12-14T05:50:53;14.68;;;8.30;;
82793;SDS011;72533;52.852;6.176;2023-12-14T05:53:18;17.25;;;9.18;;
82793;SDS011;72533;52.852;6.176;2023-12-14T05:55:44;16.52;;;7.07;;
82793;SDS011;72533;52.852;6.176;2023-12-14T05:58:09;14.10;;;7.75;;
82793;SDS011;72533;52.852;6.176;2023-12-14T06:00:35;18.33;;;8.07;;
82793;SDS011;72533;52.852;6.176;2023-12-14T06:03:01;14.57;;;7.85;;
82793;SDS011;72533;52.852;6.176;2023-12-14T06:05:26;15.63;;;7.35;;
82793;SDS011;72533;52.852;6.176;2023-12-14T06:07:51;15.57;;;6.60;;
82793;SDS011;72533;52.852;6.176;2023-12-14T06:10:17;14.98;;;8.00;;
82793;SDS011;72533;52.852;6.176;2023-12-14T06:12:42;12.15;;;7.03;;
82793;SDS011;72533;52.852;6.176;2023-12-14T06:15:07;16.53;;;7.87;;
82793;SDS011;72533;52.852;6.176;2023-12-14T06:17:33;17.90;;;8.48;;
82793;SDS011;72533;52.852;6.176;2023-12-14T06:19:59;13.88;;;6.43;;
82793;SDS011;72533;52.852;6.176;2023-12-14T06:22:24;15.18;;;8.10;;
82793;SDS011;72533;52.852;6.176;2023-12-14T06:24:50;15.98;;;7.05;;
82793;SDS011;72533;52.852;6.176;2023-12-14T06:27:15;16.87;;;8.83;;
82793;SDS011;72533;52.852;6.176;2023-12-14T06:29:41;12.43;;;6.43;;
82793;SDS011;72533;52.852;6.176;2023-12-14T06:32:06;16.50;;;7.03;;
82793;SDS011;72533;52.852;6.176;2023-12-14T06:34:31;15.03;;;7.97;;
82793;SDS011;72533;52.852;6.176;2023-12-14T06:36:57;15.53;;;10.17;;
82793;SDS011;72533;52.852;6.176;2023-12-14T06:39:24;21.35;;;8.95;;
82793;SDS011;72533;52.852;6.176;2023-12-14T06:41:52;14.77;;;7.77;;
82793;SDS011;72533;52.852;6.176;2023-12-14T06:44:17;17.85;;;7.63;;
82793;SDS011;72533;52.852;6.176;2023-12-14T06:46:43;17.83;;;8.63;;
82793;SDS011;72533;52.852;6.176;2023-12-14T06:49:08;16.33;;;7.90;;
82793;SDS011;72533;52.852;6.176;2023-12-14T06:51:34;19.80;;;8.00;;
82793;SDS011;72533;52.852;6.176;2023-12-14T06:53:59;16.57;;;6.87;;
82793;SDS011;72533;52.852;6.176;2023-12-14T06:56:24;16.37;;;7.90;;
82793;SDS011;72533;52.852;6.176;2023-12-14T06:58:50;16.20;;;8.20;;
82793;SDS011;72533;52.852;6.176;2023-12-14T07:01:16;20.30;;;8.63;;
82793;SDS011;72533;52.852;6.176;2023-12-14T07:03:42;16.83;;;7.97;;
82793;SDS011;72533;52.852;6.176;2023-12-14T07:06:13;17.25;;;7.80;;
82793;SDS011;72533;52.852;6.176;2023-12-14T07:08:39;14.48;;;8.52;;
82793;SDS011;72533;52.852;6.176;2023-12-14T07:11:06;16.33;;;8.32;;
82793;SDS011;72533;52.852;6.176;2023-12-14T07:13:32;16.45;;;8.50;;
82793;SDS011;72533;52.852;6.176;2023-12-14T07:15:57;17.97;;;8.57;;
82793;SDS011;72533;52.852;6.176;2023-12-14T07:18:22;18.37;;;8.40;;
82793;SDS011;72533;52.852;6.176;2023-12-14T07:20:48;16.27;;;8.83;;
82793;SDS011;72533;52.852;6.176;2023-12-14T07:23:13;17.63;;;8.47;;
82793;SDS011;72533;52.852;6.176;2023-12-14T07:25:38;15.63;;;8.00;;
82793;SDS011;72533;52.852;6.176;2023-12-14T07:28:04;13.98;;;7.78;;
82793;SDS011;72533;52.852;6.176;2023-12-14T07:30:29;16.17;;;10.63;;
82793;SDS011;72533;52.852;6.176;2023-12-14T07:32:54;16.87;;;7.93;;
82793;SDS011;72533;52.852;6.176;2023-12-14T07:35:20;16.60;;;8.65;;
82793;SDS011;72533;52.852;6.176;2023-12-14T07:37:45;15.63;;;9.60;;
82793;SDS011;72533;52.852;6.176;2023-12-14T07:40:10;19.30;;;9.33;;
82793;SDS011;72533;52.852;6.176;2023-12-14T07:42:36;16.33;;;7.53;;
82793;SDS011;72533;52.852;6.176;2023-12-14T07:45:01;19.88;;;11.10;;
82793;SDS011;72533;52.852;6.176;2023-12-14T07:47:27;18.15;;;8.90;;
82793;SDS011;72533;52.852;6.176;2023-12-14T07:49:52;16.97;;;8.67;;
82793;SDS011;72533;52.852;6.176;2023-12-14T07:52:17;14.00;;;8.07;;
82793;SDS011;72533;52.852;6.176;2023-12-14T07:54:43;17.95;;;9.25;;
82793;SDS011;72533;52.852;6.176;2023-12-14T07:57:09;14.77;;;7.07;;
82793;SDS011;72533;52.852;6.176;2023-12-14T07:59:34;17.40;;;8.67;;
82793;SDS011;72533;52.852;6.176;2023-12-14T08:01:59;16.45;;;7.88;;
82793;SDS011;72533;52.852;6.176;2023-12-14T08:04:25;19.52;;;9.65;;
82793;SDS011;72533;52.852;6.176;2023-12-14T08:06:50;17.60;;;8.30;;
82793;SDS011;72533;52.852;6.176;2023-12-14T08:09:16;16.67;;;12.68;;
82793;SDS011;72533;52.852;6.176;2023-12-14T08:11:41;16.65;;;8.15;;
82793;SDS011;72533;52.852;6.176;2023-12-14T08:14:07;15.43;;;7.43;;
82793;SDS011;72533;52.852;6.176;2023-12-14T08:16:32;17.13;;;9.20;;
82793;SDS011;72533;52.852;6.176;2023-12-14T08:18:57;13.63;;;7.43;;
82793;SDS011;72533;52.852;6.176;2023-12-14T08:21:23;14.48;;;8.13;;
82793;SDS011;72533;52.852;6.176;2023-12-14T08:23:48;18.50;;;8.80;;
82793;SDS011;72533;52.852;6.176;2023-12-14T08:26:14;16.73;;;7.93;;
82793;SDS011;72533;52.852;6.176;2023-12-14T08:28:39;18.50;;;6.90;;
82793;SDS011;72533;52.852;6.176;2023-12-14T08:31:04;19.42;;;9.93;;
82793;SDS011;72533;52.852;6.176;2023-12-14T08:33:30;15.40;;;7.25;;
82793;SDS011;72533;52.852;6.176;2023-12-14T08:35:56;17.50;;;8.32;;
82793;SDS011;72533;52.852;6.176;2023-12-14T08:38:21;18.98;;;7.60;;
82793;SDS011;72533;52.852;6.176;2023-12-14T08:40:47;17.35;;;8.48;;
82793;SDS011;72533;52.852;6.176;2023-12-14T08:43:12;14.47;;;7.53;;
82793;SDS011;72533;52.852;6.176;2023-12-14T08:45:38;15.15;;;7.90;;
82793;SDS011;72533;52.852;6.176;2023-12-14T08:48:03;15.70;;;8.63;;
82793;SDS011;72533;52.852;6.176;2023-12-14T08:50:29;15.35;;;7.82;;
82793;SDS011;72533;52.852;6.176;2023-12-14T08:52:54;16.88;;;8.63;;
82793;SDS011;72533;52.852;6.176;2023-12-14T08:55:19;20.17;;;9.43;;
82793;SDS011;72533;52.852;6.176;2023-12-14T08:57:45;12.85;;;7.82;;
82793;SDS011;72533;52.852;6.176;2023-12-14T09:00:10;14.77;;;8.20;;
82793;SDS011;72533;52.852;6.176;2023-12-14T09:02:36;15.60;;;8.55;;
82793;SDS011;72533;52.852;6.176;2023-12-14T09:05:02;14.30;;;8.43;;
82793;SDS011;72533;52.852;6.176;2023-12-14T09:07:29;32.38;;;17.85;;
82793;SDS011;72533;52.852;6.176;2023-12-14T09:09:54;19.52;;;9.65;;
82793;SDS011;72533;52.852;6.176;2023-12-14T09:12:20;18.47;;;8.43;;
82793;SDS011;72533;52.852;6.176;2023-12-14T09:14:45;19.77;;;8.80;;
82793;SDS011;72533;52.852;6.176;2023-12-14T09:17:11;15.10;;;7.57;;
82793;SDS011;72533;52.852;6.176;2023-12-14T09:19:36;17.45;;;10.18;;
82793;SDS011;72533;52.852;6.176;2023-12-14T09:22:02;18.27;;;8.97;;
82793;SDS011;72533;52.852;6.176;2023-12-14T09:24:27;17.95;;;9.45;;
82793;SDS011;72533;52.852;6.176;2023-12-14T09:26:53;16.00;;;7.07;;
82793;SDS011;72533;52.852;6.176;2023-12-14T09:29:19;15.33;;;7.40;;
82793;SDS011;72533;52.852;6.176;2023-12-14T09:31:45;20.93;;;8.47;;
82793;SDS011;72533;52.852;6.176;2023-12-14T09:34:11;18.77;;;8.63;;
82793;SDS011;72533;52.852;6.176;2023-12-14T09:36:36;21.75;;;9.18;;
82793;SDS011;72533;52.852;6.176;2023-12-14T09:39:02;17.35;;;7.95;;
82793;SDS011;72533;52.852;6.176;2023-12-14T09:41:28;17.75;;;8.07;;
82793;SDS011;72533;52.852;6.176;2023-12-14T09:43:53;16.88;;;7.60;;
82793;SDS011;72533;52.852;6.176;2023-12-14T09:46:18;14.23;;;7.57;;
82793;SDS011;72533;52.852;6.176;2023-12-14T09:48:46;14.40;;;6.70;;
82793;SDS011;72533;52.852;6.176;2023-12-14T09:51:12;18.42;;;10.82;;
82793;SDS011;72533;52.852;6.176;2023-12-14T09:53:37;18.20;;;7.50;;
82793;SDS011;72533;52.852;6.176;2023-12-14T09:56:03;14.73;;;7.00;;
82793;SDS011;72533;52.852;6.176;2023-12-14T09:58:31;16.48;;;7.85;;
82793;SDS011;72533;52.852;6.176;2023-12-14T10:00:57;18.73;;;8.30;;
82793;SDS011;72533;52.852;6.176;2023-12-14T10:05:52;12.07;;;7.32;;
82793;SDS011;72533;52.852;6.176;2023-12-14T10:08:18;14.10;;;7.63;;
82793;SDS011;72533;52.852;6.176;2023-12-14T10:10:44;12.90;;;6.90;;
82793;SDS011;72533;52.852;6.176;2023-12-14T10:13:11;13.65;;;7.47;;
82793;SDS011;72533;52.852;6.176;2023-12-14T10:15:44;13.68;;;8.02;;
82793;SDS011;72533;52.852;6.176;2023-12-14T10:18:10;13.05;;;6.72;;
82793;SDS011;72533;52.852;6.176;2023-12-14T10:20:35;14.00;;;7.28;;
82793;SDS011;72533;52.852;6.176;2023-12-14T10:23:05;14.88;;;7.60;;
82793;SDS011;72533;52.852;6.176;2023-12-14T10:25:31;14.10;;;7.13;;
82793;SDS011;72533;52.852;6.176;2023-12-14T10:27:57;15.77;;;7.43;;
82793;SDS011;72533;52.852;6.176;2023-12-14T10:30:22;14.55;;;7.13;;
82793;SDS011;72533;52.852;6.176;2023-12-14T10:32:48;16.70;;;7.63;;
82793;SDS011;72533;52.852;6.176;2023-12-14T10:35:14;15.18;;;8.55;;
82793;SDS011;72533;52.852;6.176;2023-12-14T10:37:41;20.83;;;8.10;;
82793;SDS011;72533;52.852;6.176;2023-12-14T10:40:07;15.80;;;7.45;;
82793;SDS011;72533;52.852;6.176;2023-12-14T10:42:35;15.95;;;7.13;;
82793;SDS011;72533;52.852;6.176;2023-12-14T10:45:02;14.90;;;6.78;;
82793;SDS011;72533;52.852;6.176;2023-12-14T10:47:28;15.15;;;7.15;;
82793;SDS011;72533;52.852;6.176;2023-12-14T10:49:54;15.63;;;7.05;;
82793;SDS011;72533;52.852;6.176;2023-12-14T10:52:20;14.68;;;7.40;;
82793;SDS011;72533;52.852;6.176;2023-12-14T10:54:47;17.13;;;9.63;;
82793;SDS011;72533;52.852;6.176;2023-12-14T10:57:14;13.05;;;7.80;;
82793;SDS011;72533;52.852;6.176;2023-12-14T10:59:41;14.10;;;7.00;;
82793;SDS011;72533;52.852;6.176;2023-12-14T11:02:07;11.48;;;6.57;;
82793;SDS011;72533;52.852;6.176;2023-12-14T11:07:42;12.95;;;6.55;;
82793;SDS011;72533;52.852;6.176;2023-12-14T11:10:13;11.35;;;6.72;;
82793;SDS011;72533;52.852;6.176;2023-12-14T11:12:54;11.93;;;6.47;;
82793;SDS011;72533;52.852;6.176;2023-12-14T11:15:22;12.02;;;6.95;;
82793;SDS011;72533;52.852;6.176;2023-12-14T11:23:09;16.40;;;6.75;;
82793;SDS011;72533;52.852;6.176;2023-12-14T11:25:35;11.10;;;6.03;;
82793;SDS011;72533;52.852;6.176;2023-12-14T11:28:03;10.75;;;5.93;;
82793;SDS011;72533;52.852;6.176;2023-12-14T11:30:30;13.00;;;7.43;;
82793;SDS011;72533;52.852;6.176;2023-12-14T11:32:55;13.85;;;6.90;;
82793;SDS011;72533;52.852;6.176;2023-12-14T11:35:20;13.10;;;6.63;;
82793;SDS011;72533;52.852;6.176;2023-12-14T11:37:46;15.97;;;7.20;;
82793;SDS011;72533;52.852;6.176;2023-12-14T11:40:11;10.85;;;5.80;;
82793;SDS011;72533;52.852;6.176;2023-12-14T11:42:38;12.43;;;7.20;;
82793;SDS011;72533;52.852;6.176;2023-12-14T11:45:03;10.87;;;6.20;;
82793;SDS011;72533;52.852;6.176;2023-12-14T11:47:29;10.60;;;6.47;;
82793;SDS011;72533;52.852;6.176;2023-12-14T11:49:54;12.17;;;6.23;;
82793;SDS011;72533;52.852;6.176;2023-12-14T11:52:20;12.40;;;5.30;;
82793;SDS011;72533;52.852;6.176;2023-12-14T11:54:46;14.38;;;6.13;;
82793;SDS011;72533;52.852;6.176;2023-12-14T11:57:12;12.20;;;6.40;;
82793;SDS011;72533;52.852;6.176;2023-12-14T11:59:37;13.57;;;5.93;;
82793;SDS011;72533;52.852;6.176;2023-12-14T12:02:03;13.15;;;6.93;;
82793;SDS011;72533;52.852;6.176;2023-12-14T12:04:31;14.80;;;8.40;;
82793;SDS011;72533;52.852;6.176;2023-12-14T12:09:36;14.82;;;6.90;;
82793;SDS011;72533;52.852;6.176;2023-12-14T12:12:07;13.30;;;6.25;;
82793;SDS011;72533;52.852;6.176;2023-12-14T12:14:33;12.93;;;7.18;;
82793;SDS011;72533;52.852;6.176;2023-12-14T12:16:59;13.05;;;6.88;;
82793;SDS011;72533;52.852;6.176;2023-12-14T12:19:24;12.53;;;7.60;;
82793;SDS011;72533;52.852;6.176;2023-12-14T12:21:49;12.45;;;6.25;;
82793;SDS011;72533;52.852;6.176;2023-12-14T12:24:15;10.80;;;6.63;;
82793;SDS011;72533;52.852;6.176;2023-12-14T12:26:40;13.35;;;6.28;;
82793;SDS011;72533;52.852;6.176;2023-12-14T12:29:06;14.60;;;7.50;;
82793;SDS011;72533;52.852;6.176;2023-12-14T12:31:31;13.55;;;6.82;;
82793;SDS011;72533;52.852;6.176;2023-12-14T12:33:58;10.80;;;6.25;;
82793;SDS011;72533;52.852;6.176;2023-12-14T12:36:23;11.23;;;6.63;;
82793;SDS011;72533;52.852;6.176;2023-12-14T12:38:48;12.80;;;5.20;;
82793;SDS011;72533;52.852;6.176;2023-12-14T12:41:14;14.17;;;6.77;;
82793;SDS011;72533;52.852;6.176;2023-12-14T12:43:39;13.07;;;8.23;;
82793;SDS011;72533;52.852;6.176;2023-12-14T12:46:04;12.70;;;6.77;;
82793;SDS011;72533;52.852;6.176;2023-12-14T12:48:30;12.88;;;8.10;;
82793;SDS011;72533;52.852;6.176;2023-12-14T12:50:55;17.35;;;7.55;;
82793;SDS011;72533;52.852;6.176;2023-12-14T12:53:20;12.47;;;5.77;;
82793;SDS011;72533;52.852;6.176;2023-12-14T12:55:46;13.03;;;7.10;;
82793;SDS011;72533;52.852;6.176;2023-12-14T12:58:11;10.70;;;5.23;;
82793;SDS011;72533;52.852;6.176;2023-12-14T13:00:38;12.35;;;7.20;;
82793;SDS011;72533;52.852;6.176;2023-12-14T13:03:03;14.10;;;6.43;;
82793;SDS011;72533;52.852;6.176;2023-12-14T13:05:28;14.30;;;6.40;;
82793;SDS011;72533;52.852;6.176;2023-12-14T13:07:54;13.47;;;7.07;;
82793;SDS011;72533;52.852;6.176;2023-12-14T13:10:19;17.38;;;8.00;;
82793;SDS011;72533;52.852;6.176;2023-12-14T13:12:47;14.35;;;5.85;;
82793;SDS011;72533;52.852;6.176;2023-12-14T13:15:13;13.38;;;6.40;;
82793;SDS011;72533;52.852;6.176;2023-12-14T13:17:38;14.47;;;6.67;;
82793;SDS011;72533;52.852;6.176;2023-12-14T13:20:03;14.73;;;6.47;;
82793;SDS011;72533;52.852;6.176;2023-12-14T13:22:31;14.45;;;6.55;;
82793;SDS011;72533;52.852;6.176;2023-12-14T13:24:57;14.23;;;7.97;;
82793;SDS011;72533;52.852;6.176;2023-12-14T13:27:22;13.02;;;5.63;;
82793;SDS011;72533;52.852;6.176;2023-12-14T13:29:49;11.45;;;6.18;;
82793;SDS011;72533;52.852;6.176;2023-12-14T13:32:14;13.47;;;7.83;;
82793;SDS011;72533;52.852;6.176;2023-12-14T13:34:39;9.73;;;4.83;;
82793;SDS011;72533;52.852;6.176;2023-12-14T13:37:05;11.37;;;6.50;;
82793;SDS011;72533;52.852;6.176;2023-12-14T13:39:31;15.57;;;6.40;;
82793;SDS011;72533;52.852;6.176;2023-12-14T13:41:58;11.90;;;7.18;;
82793;SDS011;72533;52.852;6.176;2023-12-14T13:44:24;12.75;;;5.90;;
82793;SDS011;72533;52.852;6.176;2023-12-14T13:46:49;15.60;;;6.90;;
82793;SDS011;72533;52.852;6.176;2023-12-14T13:49:14;15.73;;;7.47;;
82793;SDS011;72533;52.852;6.176;2023-12-14T13:51:40;13.47;;;5.87;;
82793;SDS011;72533;52.852;6.176;2023-12-14T13:54:05;12.82;;;6.75;;
82793;SDS011;72533;52.852;6.176;2023-12-14T13:56:30;11.17;;;7.17;;
82793;SDS011;72533;52.852;6.176;2023-12-14T13:58:56;11.20;;;6.87;;
82793;SDS011;72533;52.852;6.176;2023-12-14T14:01:21;13.37;;;5.80;;
82793;SDS011;72533;52.852;6.176;2023-12-14T14:03:46;14.30;;;7.03;;
82793;SDS011;72533;52.852;6.176;2023-12-14T14:06:12;14.40;;;6.20;;
82793;SDS011;72533;52.852;6.176;2023-12-14T14:08:38;12.80;;;6.32;;
82793;SDS011;72533;52.852;6.176;2023-12-14T14:11:03;12.97;;;7.17;;
82793;SDS011;72533;52.852;6.176;2023-12-14T14:13:29;14.40;;;10.68;;
82793;SDS011;72533;52.852;6.176;2023-12-14T14:15:54;13.27;;;7.75;;
82793;SDS011;72533;52.852;6.176;2023-12-14T14:18:20;13.27;;;7.15;;
82793;SDS011;72533;52.852;6.176;2023-12-14T14:20:45;11.85;;;6.15;;
82793;SDS011;72533;52.852;6.176;2023-12-14T14:23:11;11.57;;;5.60;;
82793;SDS011;72533;52.852;6.176;2023-12-14T14:25:36;12.20;;;5.88;;
82793;SDS011;72533;52.852;6.176;2023-12-14T14:28:01;13.27;;;9.53;;
82793;SDS011;72533;52.852;6.176;2023-12-14T14:30:27;14.05;;;7.10;;
82793;SDS011;72533;52.852;6.176;2023-12-14T14:32:53;14.07;;;9.20;;
82793;SDS011;72533;52.852;6.176;2023-12-14T14:35:18;11.57;;;5.33;;
82793;SDS011;72533;52.852;6.176;2023-12-14T14:37:44;10.80;;;5.25;;
82793;SDS011;72533;52.852;6.176;2023-12-14T14:40:13;14.65;;;7.65;;